Time;durP1;ratioP1;P1;durP2;ratioP2;P2;SDS_P1;SDS_P2;PMS_P1;PMS_P2;Temp;Humidity;BMP_temperature;BMP_pressure;BME280_temperature;BME280_humidity;BME280_pressure;Samples;Min_cycle;Max_cycle;Signal;HPM_P1;HPM_P2
2022/12/06 00:02:02;;;;;;;1.20;1.10;;;3.70;99.90;4.80;96646.00;;;;5033156;28;20208;-66
2022/12/06 00:04:52;;;;;;;0.80;0.80;;;3.80;99.90;4.80;96652.00;;;;5032485;28;20204;-66
2022/12/06 00:07:40;;;;;;;0.70;0.70;;;3.70;99.90;4.60;96642.00;;;;5048773;28;20664;-66
2022/12/06 00:10:29;;;;;;;1.30;1.20;;;3.60;99.90;4.50;96654.00;;;;5046496;28;20196;-66
2022/12/06 00:13:18;;;;;;;0.93;0.80;;;3.50;99.90;4.60;96651.00;;;;5042060;28;20205;-66
2022/12/06 00:16:10;;;;;;;1.03;1.00;;;3.50;99.90;4.70;96645.00;;;;5030182;28;20221;-66
2022/12/06 00:18:59;;;;;;;1.17;1.17;;;3.50;99.90;4.70;96652.00;;;;5041425;28;20691;-66
2022/12/06 00:21:49;;;;;;;0.80;0.80;;;3.50;99.90;4.60;96644.00;;;;5053003;28;20272;-65
2022/12/06 00:24:38;;;;;;;0.93;0.93;;;3.40;99.90;4.70;96647.00;;;;5052064;28;20632;-66
2022/12/06 00:27:27;;;;;;;0.90;0.90;;;3.40;99.90;4.20;96644.00;;;;5053240;28;20208;-66
2022/12/06 00:30:16;;;;;;;2.43;1.60;;;3.40;99.90;4.00;96647.00;;;;5051135;28;20196;-66
2022/12/06 00:33:05;;;;;;;1.47;1.13;;;3.30;99.90;4.40;96633.00;;;;5035730;28;20209;-66
2022/12/06 00:35:57;;;;;;;1.27;1.17;;;3.30;99.90;4.50;96638.00;;;;5046599;28;20232;-66
2022/12/06 00:38:48;;;;;;;0.90;0.90;;;3.30;99.90;4.40;96639.00;;;;5040001;28;20204;-66
2022/12/06 00:41:37;;;;;;;1.03;1.03;;;3.30;99.90;3.90;96632.00;;;;5037655;28;20201;-65
2022/12/06 00:44:26;;;;;;;1.30;1.20;;;3.30;99.90;3.90;96635.00;;;;5032565;28;20569;-66
2022/12/06 00:47:15;;;;;;;1.20;1.20;;;3.20;99.90;4.20;96651.00;;;;5032290;28;20204;-66
2022/12/06 00:50:04;;;;;;;1.50;1.40;;;3.20;99.90;4.50;96644.00;;;;5033026;28;20197;-65
2022/12/06 00:52:53;;;;;;;2.67;1.50;;;3.20;99.90;4.60;96649.00;;;;5039456;28;20208;-66
2022/12/06 00:55:44;;;;;;;0.93;0.93;;;3.30;99.90;4.60;96650.00;;;;5049234;28;20244;-66
2022/12/06 00:58:34;;;;;;;0.93;0.93;;;3.30;99.90;4.40;96643.00;;;;5032226;28;20216;-66
2022/12/06 01:01:24;;;;;;;1.30;1.20;;;3.30;99.90;4.30;96645.00;;;;5042525;28;20208;-65
2022/12/06 01:04:13;;;;;;;1.40;1.30;;;3.30;99.90;4.20;96632.00;;;;5033097;28;20213;-65
2022/12/06 01:07:01;;;;;;;1.20;1.17;;;3.30;99.90;4.10;96639.00;;;;5033253;28;20417;-66
2022/12/06 01:09:50;;;;;;;1.80;1.37;;;3.20;99.90;3.90;96651.00;;;;5034601;28;20957;-66
2022/12/06 01:12:40;;;;;;;1.07;1.07;;;3.20;99.90;4.10;96637.00;;;;5051393;28;20204;-66
2022/12/06 01:15:29;;;;;;;1.23;1.13;;;3.10;99.90;4.30;96652.00;;;;5049218;28;20618;-66
2022/12/06 01:18:18;;;;;;;1.63;1.53;;;3.20;99.90;4.50;96648.00;;;;5045127;28;20208;-66
2022/12/06 01:21:08;;;;;;;1.43;1.33;;;3.20;99.90;4.50;96643.00;;;;5031599;28;20454;-66
2022/12/06 01:23:58;;;;;;;0.80;0.80;;;3.30;99.90;4.30;96647.00;;;;5040413;28;20423;-66
2022/12/06 01:26:46;;;;;;;1.20;0.77;;;3.30;99.90;4.20;96646.00;;;;5047176;28;20233;-66
2022/12/06 01:29:37;;;;;;;1.33;1.17;;;3.30;99.90;4.30;96634.00;;;;5031513;28;20216;-66
2022/12/06 01:32:25;;;;;;;1.57;1.00;;;3.30;99.90;4.40;96637.00;;;;5032111;28;20209;-66
2022/12/06 01:35:14;;;;;;;1.50;1.20;;;3.20;99.90;4.40;96633.00;;;;5046709;28;20229;-66
2022/12/06 01:38:03;;;;;;;1.53;1.30;;;3.30;99.90;4.40;96629.00;;;;5047292;28;20677;-66
2022/12/06 01:40:53;;;;;;;0.90;0.90;;;3.30;99.90;4.40;96628.00;;;;5046076;28;20200;-66
2022/12/06 01:43:44;;;;;;;1.27;1.10;;;3.20;99.90;4.50;96618.00;;;;5042141;28;20582;-66
2022/12/06 01:46:39;;;;;;;0.90;0.90;;;3.30;99.90;4.50;96624.00;;;;5043583;28;20457;-65
2022/12/06 01:49:33;;;;;;;1.00;0.90;;;3.30;99.90;4.30;96636.00;;;;5051210;28;20263;-66
2022/12/06 01:52:28;;;;;;;0.87;0.87;;;3.30;99.90;4.20;96634.00;;;;5037156;28;20217;-65
2022/12/06 01:55:19;;;;;;;3.23;1.13;;;3.20;99.90;4.00;96625.00;;;;5046818;28;20225;-65
2022/12/06 01:58:16;;;;;;;1.00;1.00;;;3.20;99.90;4.00;96629.00;;;;5050590;28;20205;-66
2022/12/06 02:01:06;;;;;;;0.80;0.80;;;3.10;99.90;4.10;96638.00;;;;5051493;28;20213;-66
2022/12/06 02:03:59;;;;;;;0.97;0.97;;;3.10;99.90;4.20;96636.00;;;;5051884;28;20200;-66
2022/12/06 02:06:48;;;;;;;1.40;1.20;;;3.10;99.90;4.20;96633.00;;;;5049761;28;20973;-66
2022/12/06 02:09:38;;;;;;;0.80;0.80;;;3.10;99.90;4.20;96638.00;;;;5050639;28;20569;-66
2022/12/06 02:12:27;;;;;;;0.80;0.80;;;3.10;99.90;4.20;96628.00;;;;5051049;28;20259;-65
2022/12/06 02:15:15;;;;;;;0.97;0.70;;;3.10;99.90;4.20;96617.00;;;;5050833;28;20232;-66
2022/12/06 02:18:13;;;;;;;0.77;0.77;;;3.10;99.90;4.20;96627.00;;;;5050647;28;20427;-66
2022/12/06 02:21:14;;;;;;;1.00;1.00;;;3.10;99.90;4.20;96615.00;;;;5045359;28;20423;-66
2022/12/06 02:24:39;;;;;;;0.87;0.87;;;3.10;99.90;4.30;96610.00;;;;5046450;28;20582;-65
2022/12/06 02:27:59;;;;;;;1.90;1.07;;;3.10;99.90;4.10;96601.00;;;;5037694;28;20198;-65
2022/12/06 02:30:54;;;;;;;1.30;1.20;;;3.00;99.90;3.80;96603.00;;;;5043852;28;20440;-66
2022/12/06 02:33:49;;;;;;;1.07;0.60;;;3.00;99.90;3.60;96597.00;;;;5033819;28;20424;-65
2022/12/06 02:36:46;;;;;;;1.07;1.00;;;2.90;99.90;3.50;96601.00;;;;5048084;28;20478;-65
2022/12/06 02:39:38;;;;;;;0.80;0.80;;;2.90;99.90;3.60;96607.00;;;;5046887;28;20209;-66
2022/12/06 02:42:34;;;;;;;0.90;0.90;;;2.80;99.90;3.80;96595.00;;;;5050092;28;20428;-66
2022/12/06 02:45:28;;;;;;;1.17;0.93;;;2.70;99.90;3.80;96591.00;;;;5038290;28;20458;-66
2022/12/06 02:48:21;;;;;;;1.00;1.00;;;2.90;99.90;3.80;96586.00;;;;5047735;28;20439;-66
2022/12/06 02:51:14;;;;;;;0.70;0.70;;;2.80;99.90;3.80;96592.00;;;;5044519;28;20202;-66
2022/12/06 02:54:07;;;;;;;0.83;0.83;;;2.70;99.90;3.70;96609.00;;;;5050026;28;20439;-66
2022/12/06 02:56:56;;;;;;;0.60;0.60;;;2.70;99.90;3.70;96617.00;;;;5050230;28;20478;-66
2022/12/06 02:59:52;;;;;;;0.70;0.70;;;2.80;99.90;3.50;96611.00;;;;5048994;28;20931;-66
2022/12/06 03:02:41;;;;;;;0.50;0.50;;;;;3.00;96611.00;;;;5050468;28;20423;-65
2022/12/06 03:05:40;;;;;;;1.00;0.90;;;2.50;99.90;3.40;96607.00;;;;5046818;28;20451;-66
2022/12/06 03:08:40;;;;;;;0.50;0.50;;;2.50;99.90;3.40;96611.00;;;;5030397;28;20417;-65
2022/12/06 03:11:38;;;;;;;0.60;0.60;;;2.60;99.90;3.60;96611.00;;;;5045635;28;20439;-66
2022/12/06 03:14:32;;;;;;;1.93;0.73;;;2.50;99.90;3.70;96614.00;;;;5048143;28;20431;-66
2022/12/06 03:17:27;;;;;;;2.00;0.90;;;2.50;99.90;3.70;96618.00;;;;5048473;28;20427;-66
2022/12/06 03:20:21;;;;;;;1.27;1.03;;;2.60;99.90;3.20;96614.00;;;;5045036;28;20790;-65
2022/12/06 03:23:18;;;;;;;0.90;0.90;;;2.50;99.90;3.30;96620.00;;;;5029721;28;20421;-66
2022/12/06 03:26:10;;;;;;;0.70;0.70;;;2.40;99.90;3.50;96625.00;;;;5062805;23;21006;-63
2022/12/06 03:29:01;;;;;;;1.07;0.70;;;2.40;99.90;3.50;96612.00;;;;5035199;28;20435;-63
2022/12/06 03:31:53;;;;;;;1.23;0.70;;;2.40;99.90;3.40;96608.00;;;;5049753;28;21081;-63
2022/12/06 03:34:46;;;;;;;0.83;0.83;;;2.40;99.90;3.20;96610.00;;;;5048721;28;20419;-63
2022/12/06 03:37:39;;;;;;;1.10;1.00;;;2.40;99.90;3.00;96608.00;;;;5019925;28;20833;-63
2022/12/06 03:40:32;;;;;;;0.80;0.80;;;2.30;99.90;3.10;96608.00;;;;5026319;28;20432;-63
2022/12/06 03:43:21;;;;;;;0.70;0.70;;;2.20;99.90;3.10;96612.00;;;;5017379;28;20417;-63
2022/12/06 03:46:15;;;;;;;1.10;1.00;;;2.20;99.90;2.80;96626.00;;;;5029285;28;20451;-63
2022/12/06 03:49:10;;;;;;;0.43;0.43;;;2.30;99.90;3.00;96629.00;;;;5029007;28;20436;-63
2022/12/06 03:51:59;;;;;;;0.97;0.90;;;2.50;99.90;2.60;96628.00;;;;5020239;28;20785;-62
2022/12/06 03:54:48;;;;;;;0.67;0.67;;;2.30;99.90;2.50;96629.00;;;;5023583;28;20429;-64
2022/12/06 03:57:38;;;;;;;0.87;0.87;;;2.00;99.90;2.70;96628.00;;;;5024776;28;20425;-63
2022/12/06 04:00:27;;;;;;;0.70;0.70;;;1.90;99.90;2.90;96647.00;;;;5022540;28;20425;-62
2022/12/06 04:03:15;;;;;;;1.17;0.97;;;2.00;99.90;3.00;96649.00;;;;5022049;28;20955;-63
2022/12/06 04:06:06;;;;;;;0.60;0.60;;;2.00;99.90;3.10;96652.00;;;;5016905;28;20440;-63
2022/12/06 04:09:51;;;;;;;1.00;0.90;;;2.10;99.90;3.30;96657.00;;;;5027538;28;20545;-62
2022/12/06 04:12:59;;;;;;;1.73;1.33;;;2.10;99.90;3.30;96649.00;;;;5029253;28;20440;-64
2022/12/06 04:15:16;;;;;;;0.70;0.70;;;2.40;99.90;3.40;96651.00;;;;5027977;28;20439;-62
2022/12/06 04:18:17;;;;;;;0.70;0.70;;;2.20;99.90;3.50;96654.00;;;;5014824;28;20798;-63
2022/12/06 04:24:12;;;;;;;1.13;0.90;;;2.30;99.90;3.60;96665.00;;;;5025117;28;20459;-62
2022/12/06 04:28:40;;;;;;;5.00;0.80;;;2.30;99.90;3.50;96663.00;;;;5019362;28;20464;-63
2022/12/06 04:39:31;;;;;;;0.73;0.70;;;2.40;99.90;3.70;96669.00;;;;5019792;28;20420;-61
2022/12/06 04:45:26;;;;;;;0.67;0.67;;;2.50;99.90;3.70;96672.00;;;;5027811;28;20444;-63
2022/12/06 04:48:15;;;;;;;0.97;0.97;;;2.40;99.90;3.40;96679.00;;;;5028463;28;20427;-62
2022/12/06 04:51:05;;;;;;;0.60;0.60;;;2.50;99.90;3.30;96688.00;;;;5026322;28;21196;-62
2022/12/06 04:53:54;;;;;;;0.53;0.53;;;2.40;99.90;3.50;96680.00;;;;5020256;28;20428;-62
2022/12/06 04:56:43;;;;;;;0.63;0.63;;;2.40;99.90;3.70;96692.00;;;;5028163;28;20447;-62
2022/12/06 04:59:31;;;;;;;0.83;0.83;;;2.50;99.90;3.70;96700.00;;;;5027540;28;20935;-62
2022/12/06 05:02:20;;;;;;;0.80;0.80;;;2.50;99.90;3.80;96707.00;;;;5025226;28;20432;-63
2022/12/06 05:05:09;;;;;;;0.67;0.67;;;2.50;99.90;3.70;96695.00;;;;5024262;28;20424;-62
2022/12/06 05:07:59;;;;;;;0.67;0.67;;;2.50;99.90;3.70;96700.00;;;;5027184;28;20471;-62
2022/12/06 05:10:49;;;;;;;1.17;1.07;;;2.50;99.90;3.80;96700.00;;;;5027440;28;21158;-62
2022/12/06 05:13:37;;;;;;;0.80;0.80;;;2.60;99.90;3.80;96708.00;;;;5030819;28;20431;-62
2022/12/06 05:16:26;;;;;;;1.17;1.10;;;2.60;99.90;3.50;96697.00;;;;5021254;28;20577;-63
2022/12/06 05:19:15;;;;;;;1.70;1.37;;;2.50;99.90;3.70;96695.00;;;;5024379;28;20427;-63
2022/12/06 05:22:04;;;;;;;3.83;1.10;;;2.60;99.90;3.40;96694.00;;;;5030133;28;20420;-62
2022/12/06 05:24:54;;;;;;;0.70;0.70;;;2.40;99.90;3.50;96688.00;;;;5028208;28;20447;-62
2022/12/06 05:27:43;;;;;;;0.70;0.70;;;2.40;99.90;3.40;96698.00;;;;5021743;28;20475;-62
2022/12/06 05:30:32;;;;;;;2.60;0.90;;;2.40;99.90;3.30;96687.00;;;;5020869;28;20963;-63
2022/12/06 05:33:21;;;;;;;1.03;0.80;;;2.50;99.90;3.10;96696.00;;;;5020578;28;20786;-63
2022/12/06 05:36:13;;;;;;;0.50;0.50;;;2.30;99.90;3.20;96692.00;;;;5023030;28;20456;-63
2022/12/06 05:39:03;;;;;;;0.77;0.57;;;2.30;99.90;3.30;96704.00;;;;5018696;28;20428;-62
2022/12/06 05:41:53;;;;;;;0.60;0.60;;;2.30;99.90;3.30;96704.00;;;;5024571;28;20432;-63
2022/12/06 05:44:42;;;;;;;0.70;0.70;;;2.30;99.90;3.30;96702.00;;;;5022923;28;20803;-62
2022/12/06 05:47:31;;;;;;;0.60;0.60;;;2.20;99.90;3.40;96697.00;;;;5021289;28;20461;-63
2022/12/06 05:50:19;;;;;;;0.77;0.77;;;2.20;99.90;3.40;96690.00;;;;5024651;28;20428;-62
2022/12/06 05:53:09;;;;;;;1.50;1.40;;;2.30;99.90;3.30;96672.00;;;;5025276;28;20439;-63
2022/12/06 05:56:05;;;;;;;0.80;0.80;;;2.20;99.90;3.00;96668.00;;;;5023800;28;20459;-63
2022/12/06 05:58:55;;;;;;;0.70;0.70;;;2.20;99.90;3.20;96679.00;;;;5019144;28;20965;-62
2022/12/06 06:01:44;;;;;;;0.60;0.60;;;2.10;99.90;3.00;96683.00;;;;5025275;28;20436;-62
2022/12/06 06:04:33;;;;;;;1.23;0.87;;;2.00;99.90;3.10;96680.00;;;;5020255;28;20436;-63
2022/12/06 06:07:22;;;;;;;1.37;1.27;;;2.30;99.90;3.00;96685.00;;;;5023120;28;21003;-62
2022/12/06 06:10:11;;;;;;;10.47;7.03;;;2.10;99.90;2.90;96672.00;;;;5023732;28;20432;-62
2022/12/06 06:12:59;;;;;;;5.57;3.77;;;2.10;99.90;2.80;96683.00;;;;5028771;28;20439;-63
2022/12/06 06:15:50;;;;;;;1.87;1.37;;;2.10;99.90;2.80;96678.00;;;;5029714;28;20860;-63
2022/12/06 06:18:39;;;;;;;1.43;1.10;;;2.00;99.90;2.80;96687.00;;;;5018759;28;20421;-62
2022/12/06 06:21:28;;;;;;;1.43;1.10;;;2.00;99.90;3.00;96684.00;;;;5024350;28;20441;-63
2022/12/06 06:24:16;;;;;;;2.93;2.67;;;1.90;99.90;3.10;96674.00;;;;5027037;28;20793;-63
2022/12/06 06:27:06;;;;;;;4.47;2.67;;;1.90;99.90;3.30;96688.00;;;;5023509;28;20479;-63
2022/12/06 06:29:54;;;;;;;8.53;3.63;;;2.00;99.90;3.30;96693.00;;;;5025991;28;20439;-63
2022/12/06 06:32:45;;;;;;;3.87;3.53;;;2.10;99.90;3.10;96684.00;;;;5027140;28;20444;-63
2022/12/06 06:35:33;;;;;;;3.07;2.67;;;2.10;99.90;3.10;96686.00;;;;5024945;28;20460;-63
2022/12/06 06:38:22;;;;;;;3.57;2.37;;;2.20;99.90;2.90;96692.00;;;;5020747;28;20440;-63
2022/12/06 06:41:12;;;;;;;2.27;1.80;;;2.10;99.90;2.70;96688.00;;;;5026957;28;20493;-63
2022/12/06 06:44:00;;;;;;;6.33;3.77;;;2.00;99.90;2.90;96694.00;;;;5025798;28;21148;-63
2022/12/06 06:46:49;;;;;;;7.53;3.57;;;2.10;99.90;2.80;96692.00;;;;5017407;28;20480;-62
2022/12/06 06:49:39;;;;;;;5.90;3.10;;;2.00;99.90;2.80;96697.00;;;;5016866;28;20498;-62
2022/12/06 06:52:28;;;;;;;2.33;2.13;;;2.00;99.90;2.90;96693.00;;;;5022792;28;20455;-63
2022/12/06 06:55:19;;;;;;;3.13;1.80;;;2.00;99.90;2.90;96693.00;;;;5025375;28;20444;-62
2022/12/06 06:58:08;;;;;;;2.17;1.97;;;2.00;99.90;3.20;96702.00;;;;5019021;28;20850;-63
2022/12/06 07:00:59;;;;;;;1.43;1.27;;;2.10;99.90;2.80;96698.00;;;;5025290;28;20432;-63
2022/12/06 07:03:48;;;;;;;1.37;1.27;;;2.20;99.90;2.70;96703.00;;;;5027079;28;20432;-63
2022/12/06 07:06:38;;;;;;;1.17;1.10;;;2.00;99.90;2.60;96706.00;;;;5029772;28;20459;-62
2022/12/06 07:09:26;;;;;;;1.33;1.00;;;2.00;99.90;2.80;96710.00;;;;5027986;28;20447;-63
2022/12/06 07:12:15;;;;;;;7.87;2.40;;;2.00;99.90;3.00;96708.00;;;;5025762;28;20486;-62
2022/12/06 07:15:05;;;;;;;1.50;1.40;;;2.20;99.90;3.00;96704.00;;;;5023355;28;20428;-62
2022/12/06 07:17:53;;;;;;;8.93;6.10;;;2.00;99.90;3.00;96695.00;;;;5018615;28;20951;-62
2022/12/06 07:20:42;;;;;;;5.23;2.63;;;2.00;99.90;3.00;96708.00;;;;5026263;28;20436;-65
2022/12/06 07:23:34;;;;;;;4.47;2.83;;;2.10;99.90;3.10;96701.00;;;;5022307;28;20425;-62
2022/12/06 07:26:24;;;;;;;1.97;1.83;;;2.20;99.90;3.50;96707.00;;;;5029477;28;20456;-63
2022/12/06 07:29:12;;;;;;;3.67;2.30;;;2.10;99.90;3.60;96701.00;;;;5029373;28;20416;-62
2022/12/06 07:32:01;;;;;;;4.90;3.40;;;2.30;99.90;3.60;96709.00;;;;5025832;28;20804;-62
2022/12/06 07:34:50;;;;;;;2.47;2.27;;;2.30;99.90;3.40;96706.00;;;;5025419;28;20432;-62
2022/12/06 07:37:41;;;;;;;4.83;3.30;;;2.40;99.90;3.30;96705.00;;;;5028950;28;20431;-62
2022/12/06 07:40:32;;;;;;;3.70;2.47;;;2.40;99.90;3.50;96705.00;;;;5023458;28;20425;-62
2022/12/06 07:46:42;;;;;;;3.00;2.67;;;2.50;99.90;3.40;96712.00;;;;5018973;28;20444;-63
2022/12/06 07:49:31;;;;;;;2.13;1.63;;;2.50;99.90;3.10;96705.00;;;;5022673;28;20431;-63
2022/12/06 07:52:20;;;;;;;3.80;1.27;;;2.50;99.90;3.10;96709.00;;;;5027579;28;20462;-63
2022/12/06 07:55:11;;;;;;;2.33;2.13;;;2.40;99.90;3.30;96699.00;;;;5028805;28;20431;-62
2022/12/06 07:58:01;;;;;;;1.77;1.67;;;2.40;99.90;3.40;96694.00;;;;5017850;28;20430;-62
2022/12/06 08:00:50;;;;;;;1.13;1.03;;;2.50;99.90;3.60;96681.00;;;;5024410;28;20416;-63
2022/12/06 08:03:38;;;;;;;1.83;1.10;;;2.60;99.90;4.10;96694.00;;;;5023072;28;20437;-63
2022/12/06 08:06:28;;;;;;;1.20;1.10;;;2.70;99.90;4.30;96703.00;;;;5023046;28;20676;-62
2022/12/06 08:09:17;;;;;;;1.07;1.07;;;2.90;99.90;4.40;96697.00;;;;5024552;28;20879;-63
2022/12/06 08:12:07;;;;;;;1.43;1.33;;;3.00;99.90;4.30;96704.00;;;;5026838;28;20443;-62
2022/12/06 08:14:57;;;;;;;1.33;1.20;;;3.10;99.90;4.20;96700.00;;;;5026869;28;20442;-63
2022/12/06 08:17:47;;;;;;;2.17;1.97;;;3.10;99.90;4.60;96697.00;;;;5026504;28;20440;-62
2022/12/06 08:20:38;;;;;;;1.67;1.57;;;3.30;99.90;4.30;96703.00;;;;5023984;28;20696;-62
2022/12/06 08:23:27;;;;;;;1.77;1.40;;;3.20;99.90;4.60;96709.00;;;;5017206;28;20433;-63
2022/12/06 08:26:20;;;;;;;1.27;1.17;;;3.30;99.90;4.70;96713.00;;;;5023593;28;20903;-62
2022/12/06 08:29:08;;;;;;;1.87;1.77;;;3.30;99.90;4.40;96714.00;;;;5019300;28;20975;-62
2022/12/06 08:31:58;;;;;;;1.87;1.70;;;3.40;99.90;4.50;96720.00;;;;5023350;28;20440;-63
2022/12/06 08:34:47;;;;;;;1.87;1.77;;;3.40;99.90;4.30;96711.00;;;;5016365;28;20314;-63
2022/12/06 08:37:36;;;;;;;2.10;1.90;;;3.30;99.90;4.50;96718.00;;;;5017945;28;20919;-62
2022/12/06 08:40:25;;;;;;;2.27;2.07;;;3.30;99.90;4.60;96721.00;;;;5030072;28;20428;-63
2022/12/06 08:43:14;;;;;;;2.33;2.13;;;3.40;99.90;4.50;96711.00;;;;5023447;28;20437;-63
2022/12/06 08:46:02;;;;;;;2.73;2.53;;;3.40;99.90;4.50;96707.00;;;;5022786;28;20216;-63
2022/12/06 08:48:53;;;;;;;3.77;3.17;;;3.40;99.90;4.80;96714.00;;;;5025363;28;20217;-63
2022/12/06 08:51:43;;;;;;;3.37;3.13;;;3.50;99.90;4.90;96719.00;;;;5022611;28;20196;-63
2022/12/06 08:54:33;;;;;;;2.60;2.33;;;3.60;99.90;5.10;96722.00;;;;5027611;28;20826;-63
2022/12/06 08:57:22;;;;;;;3.37;2.67;;;3.60;99.90;5.20;96717.00;;;;5028277;28;20225;-63
2022/12/06 09:00:13;;;;;;;2.20;2.07;;;3.70;99.90;5.20;96717.00;;;;5022961;28;20593;-63
2022/12/06 09:03:02;;;;;;;2.07;1.80;;;3.80;99.90;5.20;96722.00;;;;5028580;28;20220;-63
2022/12/06 09:05:52;;;;;;;2.53;2.33;;;3.90;99.90;5.40;96715.00;;;;5024713;28;20221;-62
2022/12/06 09:08:41;;;;;;;2.80;2.60;;;4.00;99.90;5.50;96722.00;;;;5026125;28;20711;-63
2022/12/06 09:11:30;;;;;;;2.73;2.53;;;4.00;99.90;5.50;96720.00;;;;5028318;28;20299;-62
2022/12/06 09:14:19;;;;;;;2.00;1.90;;;4.10;99.90;5.10;96705.00;;;;5025934;28;20209;-62
2022/12/06 09:17:09;;;;;;;2.50;2.30;;;4.10;99.90;5.40;96720.00;;;;5021152;28;20225;-62
2022/12/06 09:19:57;;;;;;;3.00;2.53;;;4.10;99.90;5.60;96724.00;;;;5027804;28;20224;-62
2022/12/06 09:22:51;;;;;;;3.17;2.87;;;4.20;99.90;5.60;96722.00;;;;5026968;28;20197;-63
2022/12/06 09:25:41;;;;;;;3.07;2.80;;;4.30;99.90;5.60;96722.00;;;;5047513;22;20225;-65
2022/12/06 09:28:31;;;;;;;3.47;2.67;;;4.40;99.90;5.40;96714.00;;;;5042427;28;20228;-65
2022/12/06 09:31:20;;;;;;;2.13;2.03;;;4.40;99.90;5.30;96717.00;;;;5045853;28;20219;-65
2022/12/06 09:34:11;;;;;;;2.37;2.17;;;4.40;99.90;5.20;96726.00;;;;5047306;28;20197;-65
2022/12/06 09:37:07;;;;;;;1.87;1.70;;;4.30;99.90;5.30;96722.00;;;;5027993;28;20225;-65
2022/12/06 09:40:10;;;;;;;2.37;2.17;;;4.30;99.90;5.00;96708.00;;;;5022647;28;20201;-66
2022/12/06 09:43:12;;;;;;;2.63;2.43;;;4.30;99.90;5.00;96715.00;;;;5019077;28;20589;-66
2022/12/06 09:46:19;;;;;;;2.20;2.10;;;4.20;99.90;5.00;96704.00;;;;5011165;28;20236;-66
2022/12/06 09:49:27;;;;;;;2.47;2.27;;;4.10;99.90;5.40;96693.00;;;;5011005;28;20240;-66
2022/12/06 09:52:49;;;;;;;1.97;1.87;;;4.20;99.90;5.10;96696.00;;;;5027982;28;20208;-66
2022/12/06 09:55:54;;;;;;;4.13;3.47;;;4.40;99.90;5.00;96692.00;;;;5024548;28;20256;-66
2022/12/06 09:59:01;;;;;;;7.30;3.53;;;4.20;99.90;5.20;96692.00;;;;5022115;28;20208;-66
2022/12/06 10:02:05;;;;;;;7.67;3.23;;;4.30;99.90;4.90;96702.00;;;;5031053;28;20696;-67
2022/12/06 10:05:15;;;;;;;6.27;4.27;;;4.30;99.90;5.10;96690.00;;;;5030335;28;20216;-66
2022/12/06 10:08:22;;;;;;;3.03;2.67;;;4.30;99.90;4.90;96690.00;;;;5040345;28;20223;-67
2022/12/06 10:11:25;;;;;;;3.67;3.20;;;4.20;99.90;4.90;96691.00;;;;5034324;28;20305;-66
2022/12/06 10:14:31;;;;;;;2.80;2.60;;;4.20;99.90;5.50;96683.00;;;;5023033;28;20715;-66
2022/12/06 10:17:29;;;;;;;2.53;2.33;;;4.30;99.90;5.70;96696.00;;;;5035538;28;20235;-66
2022/12/06 10:20:27;;;;;;;2.50;2.30;;;4.40;99.90;5.90;96694.00;;;;5028633;28;20220;-66
2022/12/06 10:23:31;;;;;;;2.50;2.30;;;4.50;99.90;6.80;96695.00;;;;5025417;28;20205;-66
2022/12/06 10:26:31;;;;;;;2.37;2.17;;;5.00;99.90;7.00;96698.00;;;;5020312;28;20232;-66
2022/12/06 10:29:22;;;;;;;2.60;2.40;;;5.90;99.90;6.80;96685.00;;;;5015697;28;20253;-66
2022/12/06 10:32:21;;;;;;;2.93;2.70;;;6.10;99.90;6.70;96671.00;;;;5029761;28;20205;-66
2022/12/06 10:35:19;;;;;;;3.23;3.03;;;6.20;99.90;6.90;96668.00;;;;5030963;28;20202;-66
2022/12/06 10:38:27;;;;;;;2.37;2.17;;;6.50;99.90;8.20;96675.00;;;;5038242;28;20211;-66
2022/12/06 10:41:23;;;;;;;2.23;2.03;;;7.20;99.90;9.20;96668.00;;;;5022579;28;20213;-66
2022/12/06 10:44:21;;;;;;;4.07;2.67;;;8.40;99.90;8.90;96663.00;;;;5021869;28;20209;-66
2022/12/06 10:47:13;;;;;;;9.33;2.20;;;9.50;99.90;8.90;96650.00;;;;5011303;28;20598;-66
2022/12/06 10:50:08;;;;;;;1.67;1.57;;;9.80;99.90;9.80;96644.00;;;;5023684;28;20225;-66
2022/12/06 10:53:04;;;;;;;2.90;2.40;;;10.20;99.90;10.80;96671.00;;;;5026191;28;20202;-66
2022/12/06 10:56:00;;;;;;;1.97;1.83;;;10.90;99.90;10.80;96647.00;;;;5026830;28;20572;-66
2022/12/06 10:58:57;;;;;;;1.37;1.27;;;11.30;99.90;11.00;96655.00;;;;5024242;28;20216;-66
2022/12/06 11:01:46;;;;;;;1.50;1.40;;;11.70;99.90;11.10;96646.00;;;;5020608;28;20201;-66
2022/12/06 11:04:38;;;;;;;2.20;2.00;;;12.10;99.90;10.70;96646.00;;;;5020553;28;20576;-66
2022/12/06 11:07:37;;;;;;;2.27;1.93;;;12.30;99.90;11.00;96652.00;;;;5020209;28;20233;-66
2022/12/06 11:10:31;;;;;;;1.53;1.43;;;12.40;99.90;10.50;96644.00;;;;5019307;28;20230;-65
2022/12/06 11:13:27;;;;;;;1.40;1.30;;;12.60;99.90;10.00;96628.00;;;;5016321;28;20213;-66
2022/12/06 11:16:22;;;;;;;1.77;1.60;;;12.10;99.90;10.40;96627.00;;;;5017680;28;20229;-66
2022/12/06 11:19:23;;;;;;;1.50;1.40;;;11.60;99.90;10.60;96616.00;;;;5019155;28;20224;-66
2022/12/06 11:22:27;;;;;;;2.33;1.70;;;11.70;99.90;11.50;96634.00;;;;5017766;28;20205;-66
2022/12/06 11:25:26;;;;;;;1.70;1.40;;;11.90;99.90;11.90;96620.00;;;;5022502;28;20610;-66
2022/12/06 11:28:28;;;;;;;1.20;1.10;;;12.40;99.90;10.90;96627.00;;;;5030238;28;20575;-66
2022/12/06 11:31:25;;;;;;;1.47;1.10;;;12.30;99.90;10.30;96624.00;;;;5031440;28;20194;-66
2022/12/06 11:34:18;;;;;;;2.47;1.20;;;11.70;99.90;9.60;96606.00;;;;5030339;28;20623;-67
2022/12/06 11:37:09;;;;;;;1.73;1.50;;;11.10;99.90;9.70;96615.00;;;;5019639;28;20583;-66
2022/12/06 11:40:06;;;;;;;0.97;0.97;;;10.70;99.90;10.80;96619.00;;;;5026711;28;20228;-66
2022/12/06 11:42:56;;;;;;;1.00;1.00;;;10.70;99.90;11.30;96612.00;;;;5023499;28;20197;-66
2022/12/06 11:45:47;;;;;;;1.50;1.23;;;11.00;99.90;12.40;96626.00;;;;5024395;28;20668;-66
2022/12/06 11:48:37;;;;;;;1.20;1.10;;;11.40;99.90;12.80;96613.00;;;;5030834;28;20201;-66
2022/12/06 11:51:26;;;;;;;0.97;0.80;;;11.90;99.90;12.50;96606.00;;;;5024594;28;20686;-67
2022/12/06 11:54:24;;;;;;;1.03;1.03;;;12.40;99.90;12.40;96607.00;;;;5017084;28;20198;-66
2022/12/06 11:57:22;;;;;;;1.20;1.10;;;12.50;99.90;12.60;96599.00;;;;5013488;28;20229;-66
2022/12/06 12:00:16;;;;;;;1.70;1.60;;;12.70;99.90;12.90;96597.00;;;;5005162;28;20221;-66
2022/12/06 12:03:28;;;;;;;3.77;2.63;;;12.70;99.90;13.90;96611.00;;;;5011650;28;20310;-66
2022/12/06 12:06:22;;;;;;;1.87;1.77;;;12.90;99.90;13.50;96607.00;;;;5016840;28;20602;-66
2022/12/06 12:09:19;;;;;;;2.90;1.70;;;13.10;99.90;14.20;96612.00;;;;5033006;28;20248;-66
2022/12/06 12:12:17;;;;;;;2.00;1.90;;;13.40;99.90;13.70;96601.00;;;;5009889;28;20193;-66
2022/12/06 12:15:14;;;;;;;2.07;1.60;;;13.70;99.90;14.20;96605.00;;;;5021792;28;20724;-66
2022/12/06 12:18:04;;;;;;;1.73;1.63;;;13.80;99.90;15.20;96602.00;;;;5027291;28;20197;-65
2022/12/06 12:20:55;;;;;;;1.93;1.70;;;14.20;99.90;14.70;96596.00;;;;5022466;28;20258;-66
2022/12/06 12:23:47;;;;;;;2.73;1.60;;;15.00;99.90;15.40;96606.00;;;;5012626;28;20212;-65
2022/12/06 12:26:40;;;;;;;2.57;2.43;;;14.70;99.90;14.40;96585.00;;;;5026389;28;20316;-66
2022/12/06 12:29:29;;;;;;;3.30;2.17;;;14.70;99.90;14.90;96589.00;;;;5008732;28;20201;-65
2022/12/06 12:32:18;;;;;;;2.83;2.33;;;14.80;99.90;15.50;96593.00;;;;5024949;28;20232;-66
2022/12/06 12:35:27;;;;;;;3.07;2.77;;;14.90;99.90;15.90;96595.00;;;;5022746;28;20201;-66
2022/12/06 12:38:27;;;;;;;2.03;1.90;;;15.10;99.90;14.60;96586.00;;;;5023870;28;20202;-66
2022/12/06 12:41:29;;;;;;;2.07;1.77;;;15.10;99.90;14.60;96581.00;;;;5029755;28;20229;-66
2022/12/06 12:44:25;;;;;;;2.17;2.07;;;14.90;99.90;15.50;96594.00;;;;5024378;28;20194;-66
2022/12/06 12:47:24;;;;;;;2.03;1.80;;;14.90;99.90;15.50;96602.00;;;;5021294;28;20217;-66
2022/12/06 12:50:19;;;;;;;2.73;1.73;;;15.10;99.90;14.90;96584.00;;;;5018291;28;20209;-66
2022/12/06 12:53:30;;;;;;;2.20;1.77;;;15.10;99.90;13.00;96569.00;;;;5023227;28;20229;-66
2022/12/06 12:56:22;;;;;;;3.00;1.77;;;14.30;99.90;13.70;96561.00;;;;5025629;28;20256;-66
2022/12/06 12:59:15;;;;;;;1.50;1.40;;;13.80;99.90;13.70;96566.00;;;;5026649;28;20209;-66
2022/12/06 13:02:15;;;;;;;3.53;1.57;;;13.70;99.90;13.00;96560.00;;;;5024912;28;20232;-65
2022/12/06 13:05:15;;;;;;;1.30;1.20;;;13.30;99.90;11.70;96557.00;;;;5034218;28;20216;-64
2022/12/06 13:08:26;;;;;;;1.90;1.53;;;12.50;99.90;11.90;96551.00;;;;5031909;28;20203;-66
2022/12/06 13:11:15;;;;;;;1.57;1.47;;;12.10;99.90;11.20;96542.00;;;;5016941;28;20213;-66
2022/12/06 13:14:05;;;;;;;1.70;1.60;;;11.70;99.90;11.10;96542.00;;;;5013979;28;20198;-65
2022/12/06 13:16:57;;;;;;;4.10;2.67;;;11.40;99.90;11.60;96547.00;;;;5009443;28;20218;-66
2022/12/06 13:19:48;;;;;;;2.83;2.10;;;11.40;99.90;11.10;96541.00;;;;5008142;28;20233;-65
2022/12/06 13:22:44;;;;;;;1.40;1.30;;;11.20;99.90;10.80;96543.00;;;;5008074;28;20202;-66